Latest Weather Observations for Paraburdoo

IDW60801

Issued at 3:02 am WST Monday 2 March 2015 (issued every 30 minutes, with the page automatically refreshed every 10 minutes)

About weather observations | Map of weather stations | Latest weather observations for WA | Other Formats
Station Details ID: 007185 Name: PARABURDOO AERO Lat: -23.17 Lon: 117.75 Height: 423.7 m
Data from the previous 72 hours. | See also: Recent months at Paraburdoo
Date/Time
WST
Temp
°C
App
Temp
°C
Dew
Point
Rel
Hum
%
Delta-T
°C
Wind Press
QNH
hPa
Press
MSL
hPa
Rain
since 9 am
mm
Dir
 
Spd
km/h
Gust
km/h
Spd
kts
Gust
kts
02/03:00am 25.6 27.7 22.5 83 2.1 NW 15 20 8 11 1008.1 1004.8 0.8
02/02:30am 25.7 28.0 22.8 84 2.0 NW 15 19 8 10 1008.3 1005.0 0.8
02/02:00am 25.9 28.1 22.6 82 2.3 NW 15 22 8 12 1008.7 1005.4 0.8
02/01:30am 26.3 29.0 23.4 84 2.0 NW 15 19 8 10 1008.8 1005.5 0.8
02/01:00am 26.3 32.1 26.0 98 0.2 NNW 7 11 4 6 1008.8 1005.5 0.8
02/12:30am 26.3 33.4 26.0 98 0.2 CALM 0 0 0 0 1008.8 1005.5 0.8
02/12:00am 26.4 32.8 26.1 98 0.2 N 4 7 2 4 1008.8 1005.5 0.8
 
Date/Time
WST
Temp
°C
App
Temp
°C
Dew
Point
Rel
Hum
%
Delta-T
°C
Wind Press
QNH
hPa
Press
MSL
hPa
Rain
since 9 am
mm
Dir
 
Spd
km/h
Gust
km/h
Spd
kts
Gust
kts
01/11:30pm 26.6 32.8 26.3 98 0.2 NNE 6 7 3 4 1008.9 1005.6 0.8
01/11:00pm 26.5 32.4 26.2 98 0.2 NNE 7 9 4 5 1009.0 1005.7 0.8
01/10:30pm 26.2 31.9 25.9 98 0.2 ENE 7 9 4 5 1009.1 1005.8 0.8
01/10:00pm 26.1 31.4 25.8 98 0.2 NE 9 11 5 6 1009.1 1005.8 0.8
01/09:30pm 26.1 31.9 25.8 98 0.2 NE 6 7 3 4 1009.0 1005.7 0.8
01/09:00pm 26.0 31.1 25.5 97 0.4 ESE 9 11 5 6 1008.7 1005.4 0.8
01/08:30pm 25.8 30.5 25.5 98 0.2 E 11 15 6 8 1008.4 1005.1 0.8
01/08:00pm 25.7 31.1 25.4 98 0.2 ESE 7 13 4 7 1008.4 1005.1 0.8
01/07:30pm 25.3 30.7 25.1 99 0.1 SE 6 9 3 5 1007.9 1004.6 0.8
01/07:00pm 25.4 30.7 25.2 99 0.1 S 7 11 4 6 1008.0 1004.7 0.8
01/06:30pm 25.9 31.4 24.1 90 1.3 SE 2 7 1 4 1007.7 1004.4 0.2
01/06:00pm 25.6 30.7 24.0 91 1.1 N 4 9 2 5 1007.5 1004.2 0.2
01/05:30pm 25.1 29.3 24.8 98 0.2 NNW 11 15 6 8 1007.8 1004.5 0.2
01/05:00pm 25.1 28.2 24.8 98 0.2 WNW 17 26 9 14 1007.8 1004.5 0.2
01/04:30pm 25.8 24.6 24.0 90 1.3 WNW 37 52 20 28 1007.7 1004.4 0.2
01/04:26pm 26.4 24.7 24.4 89 1.4 WNW 41 59 22 32 1007.6 1004.3 0.2
01/04:16pm 29.1 28.8 21.8 64 5.0 NW 26 52 14 28 1007.6 1004.3 0.2
01/04:00pm 32.8 32.7 19.6 45 8.9 NNE 19 30 10 16 1006.7 1003.4 0.2
01/03:30pm 33.3 32.3 19.7 44 9.1 NNE 24 32 13 17 1006.4 1003.0 0.2
01/03:00pm 33.9 35.2 19.2 42 9.8 NE 11 24 6 13 1006.6 1003.3 0.2
01/02:30pm 34.1 33.4 18.6 40 10.3 NNE 20 28 11 15 1007.1 1003.8 0.2
01/02:00pm 34.2 33.5 18.7 40 10.3 NNE 20 32 11 17 1007.5 1004.2 0.2
01/01:30pm 33.2 32.3 18.2 41 9.9 NNE 20 30 11 16 1007.5 1004.2 0.2
01/01:00pm 33.3 32.7 19.7 44 9.1 NNE 22 33 12 18 1007.8 1004.5 0.2
01/12:30pm 32.5 32.6 20.4 49 8.2 NNE 20 28 11 15 1008.3 1005.0 0.2
01/12:00pm 32.4 33.0 20.3 48 8.2 NE 17 26 9 14 1009.0 1005.7 0.2
01/11:30am 31.6 31.2 20.2 50 7.7 NNE 22 32 12 17 1009.3 1006.0 0.2
01/11:00am 31.4 30.5 20.7 53 7.3 NNE 26 35 14 19 1009.5 1006.2 0.2
01/10:30am 31.0 30.9 20.0 52 7.4 NE 20 30 11 16 1009.6 1006.3 0.2
01/10:00am 30.0 29.8 19.7 54 6.9 ENE 20 30 11 16 1009.9 1006.6 0.2
01/09:30am 29.1 30.1 22.1 66 4.8 ENE 20 28 11 15 1010.1 1006.8 0.0
01/09:00am 27.0 30.1 24.1 84 2.0 ENE 15 20 8 11 1010.1 1006.8 52.2
01/08:30am 25.5 28.5 25.2 98 0.2 NE 19 26 10 14 1010.1 1006.8 52.2
01/08:00am 25.4 28.7 25.1 98 0.2 ENE 17 24 9 13 1009.8 1006.5 52.2
01/07:30am 24.5 26.9 24.2 98 0.2 ENE 19 24 10 13 1009.6 1006.0 52.2
01/07:00am 23.5 27.6 23.3 99 0.1 E 7 9 4 5 1009.4 1005.8 52.2
01/06:30am 23.0 25.3 22.8 99 0.1 E 15 20 8 11 1009.0 1005.3 52.2
01/06:00am 23.1 25.8 22.9 99 0.1 E 13 19 7 10 1008.8 1005.1 52.2
01/05:30am 23.2 26.0 23.0 99 0.1 E 13 19 7 10 1008.7 1005.0 52.2
01/05:00am 23.6 26.3 23.4 99 0.1 ENE 15 20 8 11 1009.1 1005.4 52.2
01/04:30am 22.8 24.2 22.6 99 0.1 ENE 19 30 10 16 1009.1 1005.4 52.2
01/04:00am 22.9 23.4 22.6 98 0.2 ENE 24 33 13 18 1009.3 1005.7 52.2
01/03:30am 23.6 24.4 22.4 93 0.8 ENE 22 33 12 18 1009.1 1005.4 52.2
01/03:00am 24.0 26.0 24.0 100 0.0 ENE 20 28 11 15 1009.6 1006.0 52.2
01/02:30am 23.7 26.5 23.7 100 0.0 NE 15 17 8 9 1009.6 1006.0 52.2
01/02:00am 23.4 27.6 23.4 100 0.0 ENE 7 9 4 5 1009.3 1005.7 52.2
01/01:30am 23.5 27.9 23.5 100 0.0 WNW 6 9 3 5 1009.1 1005.4 52.2
01/01:00am 23.3 27.6 23.3 100 0.0 W 6 11 3 6 1009.4 1005.8 52.2
01/12:30am 22.6 25.9 22.6 100 0.0 S 9 15 5 8 1010.4 1006.8 52.2
01/12:04am 22.4 25.6 22.4 100 0.0 SSW 9 17 5 9 1010.5 1006.9 52.2
01/12:00am 22.3 25.5 22.3 100 0.0 SSW 9 17 5 9 1010.6 1007.0 52.2
 
Date/Time
WST
Temp
°C
App
Temp
°C
Dew
Point
Rel
Hum
%
Delta-T
°C
Wind Press
QNH
hPa
Press
MSL
hPa
Rain
since 9 am
mm
Dir
 
Spd
km/h
Gust
km/h
Spd
kts
Gust
kts
28/11:31pm 23.0 25.4 23.0 100 0.0 ENE 15 20 8 11 1011.0 1007.4 36.2
28/11:30pm 23.1 25.6 23.1 100 0.0 ENE 15 22 8 12 1011.0 1007.4 34.6
28/11:22pm 23.9 27.5 23.7 99 0.1 E 11 22 6 12 1010.7 1007.1 19.6
28/11:00pm 24.8 28.9 24.6 99 0.1 S 11 17 6 9 1010.3 1006.7 16.2
28/10:30pm 24.5 27.8 24.5 100 0.0 SSW 15 19 8 10 1010.1 1006.5 16.2
28/10:19pm 24.4 27.3 24.4 100 0.0 SSW 17 22 9 12 1010.2 1006.6 16.2
28/10:00pm 23.7 26.9 23.7 100 0.0 S 13 19 7 10 1010.4 1006.8 15.2
28/09:32pm 25.2 28.7 24.9 98 0.2 W 15 35 8 19 1010.2 1006.6 3.0
28/09:30pm 25.7 29.9 25.4 98 0.2 WSW 13 22 7 12 1010.2 1006.6 0.6
28/09:00pm 29.0 28.5 20.7 61 5.6 SE 24 33 13 18 1008.5 1004.9 0.0
28/08:30pm 30.5 31.4 19.2 51 7.5 SSW 13 20 7 11 1007.7 1004.1 0.0
28/08:07pm 30.9 29.5 17.9 45 8.5 S 22 52 12 28 1006.9 1003.2 0.0
28/08:00pm 33.5 34.6 18.0 39 10.2 SE 9 15 5 8 1007.0 1003.3 0.0
28/07:30pm 32.9 33.9 19.4 45 9.0 ESE 13 17 7 9 1006.6 1002.9 0.0
28/07:00pm 33.6 35.1 17.7 38 10.4 NNE 6 9 3 5 1006.2 1002.5 0.0
28/06:30pm 33.2 34.8 17.8 40 10.1 SSW 6 7 3 4 1005.7 1002.1 0.0
28/06:00pm 33.4 33.0 17.1 37 10.6 SW 15 20 8 11 1005.4 1001.8 0.0
28/05:45pm 33.7 32.1 16.5 35 11.1 NW 20 30 11 16 1005.4 1001.8 0.0
28/05:35pm 33.9 31.0 18.0 39 10.5 NNW 30 43 16 23 1005.5 1001.9 0.0
28/05:31pm 34.0 31.5 18.1 39 10.5 N 28 43 15 23 1005.5 1001.9 0.0
28/05:30pm 34.3 32.1 17.9 37 10.8 N 26 41 14 22 1005.5 1001.9 0.0
28/05:25pm 34.8 33.4 17.9 36 11.1 NNE 22 33 12 18 1005.5 1001.9 0.0
28/05:19pm 35.1 33.3 16.9 34 11.8 ENE 22 39 12 21 1005.5 1001.9 0.0
28/05:07pm 33.9 28.8 16.7 35 11.1 ENE 39 61 21 33 1005.2 1001.6 0.0
28/05:04pm 33.0 28.3 16.8 38 10.4 NE 37 61 20 33 1005.2 1001.6 0.0
28/05:00pm 35.6 32.8 17.3 33 12.0 NNE 28 54 15 29 1005.3 1001.7 0.0
28/04:30pm 37.9 35.7 16.8 29 13.8 ENE 24 44 13 24 1004.7 1001.0 0.0
28/04:19pm 37.6 35.8 15.4 27 14.2 NNW 19 63 10 34 1004.4 1000.7 0.0
28/04:00pm 38.6 37.1 16.2 26 14.6 NNE 19 26 10 14 1004.7 1001.0 0.0
28/03:30pm 38.5 37.5 15.6 26 14.8 N 15 32 8 17 1005.1 1001.5 0.0
28/03:00pm 38.7 38.0 16.3 26 14.6 N 15 26 8 14 1005.3 1001.7 0.0
28/02:30pm 38.0 36.3 15.7 26 14.4 NE 19 37 10 20 1006.0 1002.4 0.0
28/02:00pm 38.0 36.3 16.3 27 14.1 NNE 20 32 11 17 1006.7 1003.0 0.0
28/01:30pm 38.1 36.5 16.4 27 14.1 ENE 20 35 11 19 1007.3 1003.7 0.0
28/01:00pm 37.4 37.9 17.4 30 13.2 NE 11 20 6 11 1007.9 1004.3 0.0
28/12:30pm 37.4 37.3 17.9 31 12.9 NE 15 28 8 15 1008.3 1004.7 0.0
28/12:00pm 36.2 36.5 17.8 33 12.2 NNE 13 24 7 13 1008.9 1005.2 0.0
28/11:30am 34.9 35.5 18.5 38 10.9 ENE 13 19 7 10 1009.4 1005.8 0.0
28/11:00am 34.4 35.7 18.4 38 10.6 NE 9 15 5 8 1009.8 1006.2 0.0
28/10:30am 33.4 35.4 19.1 42 9.5 W 7 13 4 7 1010.3 1006.7 0.0
28/10:00am 32.8 34.2 19.6 45 8.8 WNW 11 15 6 8 1010.5 1006.9 0.0
28/09:30am 32.1 34.4 19.4 47 8.5 NE 6 9 3 5 1010.6 1007.0 0.0
28/09:00am 31.0 33.7 20.6 54 7.0 NNW 7 11 4 6 1010.8 1007.2 0.0
28/08:30am 30.1 32.9 20.9 57 6.2 N 7 11 4 6 1010.8 1007.2 0.0
28/08:00am 29.9 34.5 21.8 62 5.5 CALM 0 0 0 0 1010.7 1007.1 0.0
28/07:30am 28.8 32.9 23.0 71 4.0 NE 6 7 3 4 1010.6 1007.0 0.0
28/07:00am 27.1 32.9 25.7 92 1.0 E 6 7 3 4 1010.4 1006.8 0.0
28/06:30am 26.1 31.4 25.9 99 0.1 NE 9 9 5 5 1009.9 1006.3 0.0
28/06:00am 26.1 33.1 25.8 98 0.2 CALM 0 0 0 0 1009.5 1005.9 0.0
28/05:30am 26.1 33.1 25.8 98 0.2 CALM 0 0 0 0 1009.3 1005.7 0.0
28/05:00am 26.2 32.1 25.9 98 0.2 ENE 6 7 3 4 1009.2 1005.6 0.0
28/04:30am 26.3 32.1 26.0 98 0.2 ESE 7 9 4 5 1008.9 1005.2 0.0
28/04:00am 26.6 32.8 26.3 98 0.2 E 6 7 3 4 1008.8 1005.1 0.0
28/03:30am 26.8 32.8 26.1 96 0.5 ESE 6 7 3 4 1008.7 1005.0 0.0
28/03:00am 26.8 33.6 26.1 96 0.5 SE 2 6 1 3 1008.4 1004.8 0.0
28/02:30am 27.6 32.5 24.6 84 2.1 N 7 9 4 5 1008.1 1004.5 0.0
28/02:00am 27.8 31.9 24.0 80 2.7 NW 9 11 5 6 1008.2 1004.6 0.0
28/01:30am 28.2 33.3 24.6 81 2.5 WSW 6 13 3 7 1008.4 1004.8 0.0
28/01:00am 28.0 33.0 24.8 83 2.3 NW 7 9 4 5 1008.4 1004.8 0.0
28/12:30am 28.2 33.3 24.6 81 2.5 N 6 7 3 4 1008.7 1005.0 0.0
28/12:00am 28.3 34.3 24.3 79 2.8 CALM 0 0 0 0 1009.1 1005.4 0.0
 
Date/Time
WST
Temp
°C
App
Temp
°C
Dew
Point
Rel
Hum
%
Delta-T
°C
Wind Press
QNH
hPa
Press
MSL
hPa
Rain
since 9 am
mm
Dir
 
Spd
km/h
Gust
km/h
Spd
kts
Gust
kts
27/11:30pm 28.9 32.8 22.6 69 4.3 N 6 9 3 5 1009.1 1005.4 0.0
27/11:00pm 29.0 32.6 23.0 70 4.2 NNE 9 11 5 6 1009.1 1005.4 0.0
27/10:30pm 29.4 33.3 22.6 67 4.7 NNE 6 9 3 5 1008.9 1005.2 0.0
27/10:00pm 29.6 34.1 21.5 61 5.5 CALM 0 0 0 0 1009.2 1005.6 0.0
27/09:30pm 30.1 33.9 20.9 57 6.2 SSW 2 6 1 3 1009.3 1005.7 0.0
27/09:00pm 30.3 32.4 20.2 54 6.8 SSW 9 13 5 7 1009.2 1005.6 0.0
27/08:30pm 30.4 32.7 20.6 55 6.6 SW 9 11 5 6 1008.9 1005.2 0.0
27/08:00pm 30.9 33.2 19.9 52 7.4 WNW 7 9 4 5 1008.0 1004.4 0.0
27/07:30pm 31.2 33.8 19.2 48 8.0 N 4 9 2 5 1007.8 1004.2 0.0
27/07:00pm 31.2 32.5 20.2 52 7.4 N 13 17 7 9 1007.0 1003.3 0.0
27/06:30pm 32.3 31.1 19.2 46 8.7 NNW 24 33 13 18 1006.8 1003.1 0.0
27/06:00pm 34.1 31.9 18.6 40 10.3 NNE 28 32 15 17 1006.0 1002.4 0.0
27/05:30pm 35.9 35.7 15.6 30 13.0 N 11 17 6 9 1005.1 1001.5 0.0
27/05:00pm 36.1 35.1 14.7 28 13.6 N 13 26 7 14 1005.2 1001.6 0.0
27/04:30pm 36.1 35.6 16.8 32 12.6 NE 15 22 8 12 1005.2 1001.6 0.0
27/04:00pm 36.0 35.2 17.2 33 12.3 ENE 17 24 9 13 1005.3 1001.7 0.0
27/03:30pm 35.6 36.8 18.2 35 11.5 NE 9 13 5 7 1005.2 1001.6 0.0
27/03:00pm 35.4 37.1 18.5 37 11.3 SW 7 15 4 8 1006.0 1002.4 0.0
27/02:30pm 34.9 38.6 20.8 43 9.6 NNW 2 6 1 3 1006.6 1002.9 0.0
27/02:00pm 33.4 36.2 20.9 48 8.5 ENE 7 9 4 5 1007.1 1003.5 0.0
27/01:30pm 32.5 34.8 21.4 52 7.6 E 11 15 6 8 1007.5 1003.9 0.0
27/01:00pm 31.8 34.5 21.3 53 7.2 E 9 13 5 7 1008.0 1004.4 0.0
27/12:30pm 31.4 34.9 21.8 56 6.6 NE 6 11 3 6 1008.3 1004.7 0.0
27/12:00pm 30.6 33.7 22.2 61 5.8 NNE 9 15 5 8 1008.8 1005.1 0.0
27/11:30am 30.3 33.6 22.5 63 5.4 NE 9 19 5 10 1009.1 1005.4 0.0
27/11:00am 29.7 33.1 22.7 66 4.8 NE 9 15 5 8 1009.5 1005.9 0.0
27/10:30am 29.3 32.3 23.3 70 4.2 NE 13 20 7 11 1009.9 1006.3 0.0
27/10:00am 28.0 30.7 23.4 76 3.2 NE 15 19 8 10 1010.1 1006.5 0.0
27/09:30am 27.1 29.6 24.4 85 1.9 NE 19 22 10 12 1010.3 1006.7 0.0
27/09:00am 26.4 27.4 22.9 81 2.4 NE 22 30 12 16 1010.4 1006.8 6.0
27/08:30am 26.0 27.9 22.1 79 2.7 ENE 15 19 8 10 1010.6 1007.0 6.0
27/08:00am 25.5 28.5 23.4 88 1.5 ENE 13 17 7 9 1010.4 1006.8 6.0
27/07:30am 24.8 28.9 23.9 95 0.6 E 9 13 5 7 1010.1 1006.5 6.0
27/07:00am 24.7 27.9 24.4 98 0.2 ENE 15 20 8 11 1010.2 1006.6 6.0
27/06:30am 24.9 28.1 24.4 97 0.3 NE 15 20 8 11 1010.1 1006.5 6.0
27/06:00am 25.0 24.6 24.0 94 0.7 NE 33 44 18 24 1009.8 1006.2 6.0
27/05:52am 25.7 25.8 23.2 86 1.7 NE 28 44 15 24 1009.5 1005.9 6.0
27/05:30am 26.7 31.6 26.4 98 0.2 NE 13 17 7 9 1009.0 1005.3 6.0
27/05:00am 26.4 31.1 26.1 98 0.2 NNE 13 17 7 9 1008.4 1004.8 6.0
27/04:30am 27.3 33.4 27.0 98 0.2 N 9 13 5 7 1008.2 1004.6 6.0
27/04:00am 26.4 31.5 26.2 99 0.1 N 11 11 6 6 1007.8 1004.2 6.0
27/03:30am 26.4 31.1 26.1 98 0.2 NNW 13 17 7 9 1007.5 1003.9 6.0

Other Formats:

Comma delimited format used in spreadsheet applications
http://www.bom.gov.au/fwo/IDW60801/IDW60801.94316.axf

JavaScript Object Notation format (JSON) in row-major order
http://www.bom.gov.au/fwo/IDW60801/IDW60801.94316.json